createdAt,value
2023-01-03T12:36:16.259Z,98.60
2023-01-03T12:38:48.567Z,98.50
2023-01-03T12:41:28.111Z,98.70
2023-01-03T12:44:07.387Z,98.90
2023-01-03T12:46:41.991Z,98.90
2023-01-03T12:49:24.102Z,98.70
2023-01-03T12:51:51.062Z,98.90
2023-01-03T12:54:27.633Z,98.70
2023-01-03T12:57:24.633Z,98.70
2023-01-03T13:00:06.181Z,98.80
2023-01-03T13:02:50.209Z,99.00
2023-01-03T13:05:17.069Z,98.70
2023-01-03T13:08:17.057Z,98.90
2023-01-03T13:10:48.660Z,99.00
2023-01-03T13:13:18.935Z,98.70
2023-01-03T13:15:46.815Z,98.80
2023-01-03T13:18:17.284Z,99.10
2023-01-03T13:20:49.977Z,99.00
2023-01-03T13:23:41.417Z,99.10
2023-01-03T13:26:19.322Z,99.30
2023-01-03T13:28:46.437Z,99.20
2023-01-03T13:31:19.313Z,99.30
2023-01-03T13:33:52.140Z,98.90
2023-01-03T13:36:19.579Z,98.60
2023-01-03T13:38:46.563Z,98.70
2023-01-03T13:41:39.004Z,99.00
2023-01-03T13:44:22.207Z,99.00
2023-01-03T13:46:50.350Z,99.00
2023-01-03T13:49:26.606Z,99.10
2023-01-03T13:51:56.606Z,98.80
2023-01-03T13:54:33.729Z,98.70
2023-01-03T13:57:07.926Z,98.70
2023-01-03T13:59:42.713Z,98.40
2023-01-03T14:02:09.724Z,98.70
2023-01-03T14:05:10.412Z,98.70
2023-01-03T14:07:55.160Z,98.60
2023-01-03T14:10:43.483Z,98.70
2023-01-03T14:13:35.879Z,98.80
2023-01-03T14:16:30.716Z,98.70
2023-01-03T14:19:24.148Z,98.30
2023-01-03T14:22:21.079Z,98.10
2023-01-03T14:24:52.651Z,97.90
2023-01-03T14:27:23.196Z,97.80
2023-01-03T14:29:54.702Z,98.00
2023-01-03T14:32:34.898Z,98.00
2023-01-03T14:35:03.092Z,98.00
2023-01-03T14:37:33.093Z,97.90
2023-01-03T14:40:08.699Z,98.80
2023-01-03T14:42:35.583Z,98.50
2023-01-03T14:45:06.074Z,98.50
2023-01-03T14:47:33.204Z,98.30
2023-01-03T14:50:00.442Z,98.20
2023-01-03T14:52:27.256Z,98.20
2023-01-03T14:55:01.632Z,98.00
2023-01-03T14:57:30.800Z,98.00
2023-01-03T15:00:00.264Z,98.10
2023-01-03T15:02:33.637Z,98.10
2023-01-03T15:05:02.721Z,98.20
2023-01-03T15:07:33.834Z,98.10
2023-01-03T15:10:13.077Z,98.00
2023-01-03T15:12:44.492Z,98.00
2023-01-03T15:15:23.584Z,98.00
2023-01-03T15:17:53.937Z,98.10
2023-01-03T15:20:35.020Z,99.40
2023-01-03T15:23:02.813Z,98.00
2023-01-03T15:25:39.112Z,98.00
2023-01-03T15:28:35.684Z,98.10
2023-01-03T15:31:23.778Z,98.10
2023-01-03T15:34:17.944Z,97.80
2023-01-03T15:36:55.319Z,97.80
2023-01-03T15:39:28.402Z,97.90
2023-01-03T15:45:11.083Z,98.00
2023-01-03T15:47:38.037Z,97.60
2023-01-03T15:50:06.837Z,97.70
2023-01-03T15:52:33.835Z,98.00
2023-01-03T15:55:00.605Z,97.80
2023-01-03T15:57:30.317Z,97.70
2023-01-03T16:00:01.850Z,97.70
2023-01-03T16:02:32.318Z,97.70
2023-01-03T16:04:59.303Z,97.70
2023-01-03T16:07:26.434Z,97.90
2023-01-03T16:09:53.348Z,97.90
2023-01-03T16:12:24.989Z,98.00
2023-01-03T16:14:55.479Z,98.10
2023-01-03T16:17:25.828Z,98.30
2023-01-03T16:19:53.425Z,98.30
2023-01-03T16:22:34.467Z,98.30
2023-01-03T16:25:02.366Z,98.50
2023-01-03T16:27:29.166Z,98.30
2023-01-03T16:29:56.071Z,98.30
2023-01-03T16:32:27.458Z,98.30
2023-01-03T16:35:03.132Z,98.50
2023-01-03T16:37:30.154Z,99.60
2023-01-03T16:39:58.571Z,98.90
2023-01-03T16:42:28.674Z,98.40
2023-01-03T16:44:55.761Z,98.30
2023-01-03T16:47:23.466Z,98.40
2023-01-03T16:49:57.739Z,98.40
2023-01-03T16:52:37.622Z,98.30
2023-01-03T16:55:19.988Z,98.50
2023-01-03T16:57:53.593Z,98.50
2023-01-03T17:00:24.101Z,98.60
2023-01-03T17:02:51.137Z,98.50
2023-01-03T17:05:21.079Z,98.40
2023-01-03T17:07:50.922Z,98.50
2023-01-03T17:10:28.019Z,99.80
2023-01-03T17:12:55.772Z,99.90
2023-01-03T17:15:22.657Z,98.90
2023-01-03T17:17:49.521Z,98.60
2023-01-03T17:20:18.373Z,98.70
2023-01-03T17:22:56.307Z,98.80
2023-01-03T17:25:23.662Z,98.70
2023-01-03T17:27:54.814Z,98.80
2023-01-03T17:30:25.107Z,99.90
2023-01-03T17:32:52.039Z,98.70
2023-01-03T17:35:21.675Z,98.60
2023-01-03T17:40:44.617Z,98.50
2023-01-03T17:43:22.284Z,98.40
2023-01-03T17:46:10.622Z,98.30
2023-01-03T17:48:55.838Z,98.30
2023-01-03T17:51:23.168Z,98.40
2023-01-03T17:53:51.068Z,98.30
2023-01-03T17:56:19.247Z,99.90
2023-01-03T17:58:55.672Z,99.90
2023-01-03T18:01:23.517Z,99.90
2023-01-03T18:03:50.783Z,99.50
2023-01-03T18:06:25.861Z,98.60
2023-01-03T18:08:53.371Z,98.20
2023-01-03T18:11:22.781Z,98.10
2023-01-03T18:13:49.853Z,98.10
2023-01-03T18:16:20.023Z,98.20
2023-01-03T18:18:47.632Z,98.10
2023-01-03T18:21:19.275Z,98.20
2023-01-03T18:23:46.424Z,98.20
2023-01-03T18:26:16.223Z,98.20
2023-01-03T18:28:43.556Z,98.30
2023-01-03T18:31:15.733Z,98.00
2023-01-03T18:33:43.008Z,98.00
2023-01-03T18:36:28.097Z,98.20
2023-01-03T18:39:04.349Z,98.30
2023-01-03T18:41:33.948Z,98.30
2023-01-03T18:44:01.040Z,98.30
2023-01-03T18:46:28.871Z,98.30
2023-01-03T18:48:56.227Z,98.50
2023-01-03T18:51:27.284Z,98.20
2023-01-03T18:53:57.777Z,98.20
2023-01-03T18:56:28.441Z,98.50
2023-01-03T18:59:02.252Z,98.80
2023-01-03T19:01:29.911Z,99.00
2023-01-03T19:03:58.404Z,98.80
2023-01-03T19:06:30.436Z,98.70
2023-01-03T19:09:02.899Z,98.50
2023-01-03T19:11:39.923Z,98.30
2023-01-03T19:14:07.503Z,98.20
2023-01-03T19:16:37.233Z,98.30
2023-01-03T19:19:05.249Z,98.20
2023-01-03T19:21:35.511Z,98.50
2023-01-03T19:24:14.054Z,98.40
2023-01-03T19:26:46.812Z,98.30
2023-01-03T19:29:26.205Z,98.20
2023-01-03T19:31:55.976Z,98.20
2023-01-03T19:34:25.189Z,98.30
2023-01-03T19:36:52.466Z,98.30
2023-01-03T19:39:24.707Z,98.50
2023-01-03T19:42:14.472Z,98.60
2023-01-03T19:44:42.060Z,99.00
2023-01-03T19:47:14.592Z,99.20
2023-01-03T19:49:42.257Z,99.60
2023-01-03T19:52:09.181Z,99.30
2023-01-03T19:54:35.964Z,99.20
2023-01-03T19:57:02.905Z,99.30
2023-01-03T19:59:38.165Z,99.60
2023-01-03T20:02:26.456Z,99.90
2023-01-03T20:04:53.535Z,99.90
2023-01-03T20:07:20.535Z,99.90
2023-01-03T20:09:47.334Z,99.80
2023-01-03T20:12:15.452Z,99.40
2023-01-03T20:14:47.075Z,99.10
2023-01-03T20:17:25.456Z,98.80
2023-01-03T20:19:52.811Z,98.90
2023-01-03T20:23:02.628Z,98.70
2023-01-03T20:25:27.517Z,98.70
2023-01-03T20:27:55.258Z,98.60
2023-01-03T20:30:24.128Z,98.60
2023-01-03T20:32:51.234Z,98.50
2023-01-03T20:38:11.017Z,98.50
2023-01-03T20:40:38.111Z,98.40
2023-01-03T20:43:05.575Z,98.40
2023-01-03T20:45:32.859Z,98.40
2023-01-03T20:48:00.952Z,98.50
2023-01-03T20:50:29.229Z,98.50
2023-01-03T20:52:57.411Z,98.30
2023-01-03T20:55:26.676Z,98.40
2023-01-03T20:57:53.615Z,98.20
2023-01-03T21:00:32.549Z,98.50
2023-01-03T21:02:59.622Z,98.70
2023-01-03T21:05:26.815Z,98.50
2023-01-03T21:08:12.187Z,98.50
2023-01-03T21:10:41.880Z,98.50
2023-01-03T21:13:10.001Z,98.80
2023-01-03T21:15:38.041Z,99.10
2023-01-03T21:18:06.143Z,99.00
2023-01-03T21:20:33.678Z,98.90
2023-01-03T21:23:00.901Z,98.50
2023-01-03T21:25:38.485Z,98.70
2023-01-03T21:28:05.452Z,98.80
2023-01-03T21:30:32.832Z,98.80
2023-01-03T21:32:59.787Z,98.50
2023-01-03T21:35:26.815Z,99.00
2023-01-03T21:37:54.684Z,98.50
2023-01-03T21:40:25.165Z,98.30
2023-01-03T21:43:04.099Z,98.00
2023-01-03T21:45:48.926Z,97.80
2023-01-03T21:48:18.118Z,98.20
2023-01-03T21:50:47.321Z,97.70
2023-01-03T21:53:15.744Z,97.40
2023-01-03T21:55:42.716Z,97.50
2023-01-03T21:58:13.652Z,97.80
2023-01-03T22:00:40.878Z,98.10
2023-01-03T22:03:29.638Z,97.90
2023-01-03T22:06:13.856Z,97.60
2023-01-03T22:08:41.233Z,97.60
2023-01-03T22:11:08.299Z,98.40
2023-01-03T22:13:38.290Z,98.60
2023-01-03T22:16:07.537Z,98.30
2023-01-03T22:18:35.375Z,98.20
2023-01-03T22:21:07.832Z,97.40
2023-01-03T22:23:38.465Z,97.60
2023-01-03T22:26:12.149Z,97.80
2023-01-03T22:28:42.064Z,98.00
2023-01-03T22:31:16.229Z,97.80
2023-01-03T22:33:44.666Z,98.00
2023-01-03T22:36:11.989Z,97.90
2023-01-03T22:38:39.613Z,98.20
2023-01-03T22:41:10.322Z,98.20
2023-01-03T22:43:37.155Z,98.30
2023-01-03T22:46:12.754Z,98.50
2023-01-03T22:48:40.489Z,98.30
2023-01-03T22:51:10.467Z,98.30
2023-01-03T22:53:39.566Z,98.80
2023-01-03T22:56:08.630Z,99.00
2023-01-03T22:58:36.987Z,98.50
2023-01-03T23:01:14.920Z,98.40
2023-01-03T23:03:43.011Z,98.30
2023-01-03T23:06:14.143Z,98.10
2023-01-03T23:08:42.239Z,98.00
2023-01-03T23:11:33.957Z,98.00
2023-01-03T23:14:03.287Z,97.80
2023-01-03T23:16:32.152Z,98.10
2023-01-03T23:19:01.991Z,98.10
2023-01-03T23:21:28.816Z,98.10
2023-01-03T23:23:55.778Z,98.30
2023-01-03T23:26:22.890Z,98.60
2023-01-03T23:28:49.878Z,98.60
2023-01-03T23:31:16.801Z,99.00
2023-01-03T23:33:43.679Z,99.10
2023-01-03T23:36:13.195Z,98.90
2023-01-03T23:38:40.004Z,98.80
2023-01-03T23:41:09.347Z,98.70
2023-01-03T23:43:37.496Z,98.40
2023-01-03T23:46:05.931Z,98.30
2023-01-03T23:48:32.971Z,98.10
2023-01-03T23:51:05.093Z,98.10
2023-01-03T23:53:35.528Z,98.00
2023-01-03T23:56:07.144Z,97.90
2023-01-03T23:58:34.917Z,98.00
